Time;durP1;ratioP1;P1;durP2;ratioP2;P2;SDS_P1;SDS_P2;PMS_P1;PMS_P2;Temp;Humidity;BMP_temperature;BMP_pressure;BME280_temperature;BME280_humidity;BME280_pressure;Samples;Min_cycle;Max_cycle;Signal;HPM_P1;HPM_P2
2021/12/18 00:01:05;;;;;;;39.50;16.77;;;;;;;14.49;48.81;103735.97;4945954;29;20051;-58
2021/12/18 00:03:32;;;;;;;43.90;18.27;;;;;;;14.51;49.34;103728.69;4928939;29;20090;-57
2021/12/18 00:05:57;;;;;;;39.10;16.92;;;;;;;14.54;49.83;103733.88;4945803;29;20024;-57
2021/12/18 00:08:23;;;;;;;43.88;16.00;;;;;;;14.56;49.12;103726.59;4947175;29;20019;-58
2021/12/18 00:10:49;;;;;;;39.00;15.95;;;;;;;14.57;49.50;103725.63;4928434;29;20019;-58
2021/12/18 00:13:14;;;;;;;44.78;17.48;;;;;;;14.57;49.69;103717.53;4928466;29;20033;-58
2021/12/18 00:15:40;;;;;;;39.88;16.88;;;;;;;14.60;49.85;103721.88;4927395;29;20224;-58
2021/12/18 00:18:05;;;;;;;41.92;17.98;;;;;;;14.63;48.75;103731.66;4947557;29;20499;-57
2021/12/18 00:20:31;;;;;;;38.67;15.95;;;;;;;14.65;49.32;103735.13;4929391;29;20030;-58
2021/12/18 00:22:56;;;;;;;44.85;17.15;;;;;;;14.67;49.00;103733.22;4946632;29;20027;-59
2021/12/18 00:25:22;;;;;;;41.28;16.95;;;;;;;14.69;50.14;103725.91;4943409;29;20040;-58
2021/12/18 00:27:48;;;;;;;39.83;16.20;;;;;;;14.72;49.65;103733.84;4945324;29;20102;-58
2021/12/18 00:30:14;;;;;;;44.75;17.10;;;;;;;14.71;48.87;103722.19;4945794;29;20043;-58
2021/12/18 00:32:39;;;;;;;39.28;15.57;;;;;;;14.74;48.59;103726.56;4929786;29;20024;-58
2021/12/18 00:35:05;;;;;;;46.13;17.00;;;;;;;14.74;48.88;103726.56;4942436;29;20031;-58
2021/12/18 00:37:30;;;;;;;42.38;16.75;;;;;;;14.74;50.18;103719.28;4946194;29;20070;-57
2021/12/18 00:39:59;;;;;;;41.40;15.75;;;;;;;14.76;49.36;103716.53;4944371;29;20023;-57
2021/12/18 00:42:49;;;;;;;39.72;16.77;;;;;;;14.76;49.27;103717.41;4947945;29;20031;-57
2021/12/18 00:45:15;;;;;;;38.97;16.20;;;;;;;14.72;49.71;103706.84;4930008;29;20035;-58
2021/12/18 00:47:42;;;;;;;42.67;17.88;;;;;;;14.72;49.41;103709.56;4946081;29;20107;-59
2021/12/18 00:50:10;;;;;;;46.53;17.30;;;;;;;14.72;49.41;103717.66;4928019;29;20031;-59
2021/12/18 00:52:36;;;;;;;43.75;18.02;;;;;;;14.69;49.32;103710.59;4945821;29;20024;-59
2021/12/18 00:55:02;;;;;;;46.22;18.73;;;;;;;14.57;50.47;103695.09;4943939;29;20038;-59
2021/12/18 00:57:28;;;;;;;44.03;17.63;;;;;;;14.75;49.23;103720.19;4944915;29;20024;-59
2021/12/18 00:59:58;;;;;;;44.35;17.25;;;;;;;14.76;50.40;103721.94;4945126;29;20030;-59
2021/12/18 01:02:24;;;;;;;43.08;18.17;;;;;;;14.76;49.10;103721.94;4944101;29;20099;-59
2021/12/18 01:04:49;;;;;;;45.72;18.48;;;;;;;14.75;50.45;103723.75;4943724;29;20130;-59
2021/12/18 01:07:15;;;;;;;54.35;19.98;;;;;;;14.75;50.21;103709.38;4927173;29;20035;-59
2021/12/18 01:12:15;;;;;;;49.58;17.75;;;;;;;14.80;49.35;103723.47;4945512;29;20039;-59
2021/12/18 01:14:57;;;;;;;50.05;17.42;;;;;;;14.80;50.88;103721.66;4926640;29;20131;-60
2021/12/18 01:22:47;;;;;;;50.35;19.90;;;;;;;14.79;49.38;103710.97;4946727;29;20078;-59
2021/12/18 01:25:18;;;;;;;53.13;18.33;;;;;;;14.77;50.20;103708.34;4948900;29;20521;-59
2021/12/18 01:27:43;;;;;;;41.28;18.10;;;;;;;14.79;50.34;103717.25;4947071;29;20020;-60
2021/12/18 01:30:10;;;;;;;43.67;17.02;;;;;;;14.80;50.59;103713.56;4948286;29;20082;-60
2021/12/18 01:32:36;;;;;;;56.03;21.77;;;;;;;14.81;49.78;103711.75;4931547;29;20028;-59
2021/12/18 01:35:03;;;;;;;45.70;18.92;;;;;;;14.82;49.52;103708.09;4946858;29;20028;-59
2021/12/18 01:37:28;;;;;;;47.42;17.83;;;;;;;14.88;49.89;103722.09;4948124;29;20027;-59
2021/12/18 01:39:54;;;;;;;48.00;19.17;;;;;;;14.90;50.86;103713.94;4948083;29;20103;-59
2021/12/18 01:52:44;;;;;;;42.63;16.73;;;;;;;14.94;50.07;103720.88;4934755;29;20062;-59
2021/12/18 01:55:10;;;;;;;46.38;17.70;;;;;;;14.94;50.03;103726.28;4947391;29;20027;-59
2021/12/18 01:57:36;;;;;;;44.97;17.27;;;;;;;14.95;50.58;103725.34;4931179;29;20020;-59
2021/12/18 02:00:14;;;;;;;41.90;17.60;;;;;;;14.95;49.95;103720.81;4946613;29;20540;-60
2021/12/18 02:02:39;;;;;;;53.67;19.20;;;;;;;14.96;49.77;103716.28;4926124;29;20032;-59
2021/12/18 02:05:05;;;;;;;45.80;17.88;;;;;;;14.95;51.00;103718.13;4949323;29;20047;-59
2021/12/18 02:07:30;;;;;;;44.90;17.35;;;;;;;14.97;50.65;103709.91;4946976;29;20020;-60
2021/12/18 02:10:03;;;;;;;42.40;16.15;;;;;;;14.97;49.48;103712.63;4929808;29;20045;-59
2021/12/18 02:12:42;;;;;;;48.47;16.65;;;;;;;14.98;50.98;103714.38;4931182;29;20547;-59
2021/12/18 02:20:45;;;;;;;42.05;17.05;;;;;;;14.96;50.87;103703.63;4946002;29;20085;-60
2021/12/18 02:23:10;;;;;;;47.78;17.00;;;;;;;14.99;50.87;103710.72;4948412;29;20023;-59
2021/12/18 02:25:36;;;;;;;48.38;18.75;;;;;;;14.99;50.71;103705.31;4925732;29;20052;-59
2021/12/18 02:28:05;;;;;;;43.35;16.27;;;;;;;15.00;50.38;103704.34;4928678;29;20098;-59
2021/12/18 02:30:32;;;;;;;48.25;17.98;;;;;;;15.00;51.09;103698.94;4925848;29;20107;-60
2021/12/18 02:32:57;;;;;;;44.00;18.20;;;;;;;15.00;50.03;103699.81;4925525;29;20460;-60
2021/12/18 02:35:28;;;;;;;44.72;17.52;;;;;;;15.02;50.18;103691.63;4928253;29;20047;-59
2021/12/18 02:38:11;;;;;;;45.47;16.23;;;;;;;15.03;50.04;103696.06;4926884;29;20024;-60
2021/12/18 02:43:17;;;;;;;42.38;17.25;;;;;;;15.04;50.71;103705.94;4928754;29;20565;-59
2021/12/18 02:45:42;;;;;;;41.40;16.70;;;;;;;15.04;50.13;103689.72;4925885;29;20111;-60
2021/12/18 02:48:07;;;;;;;43.88;15.55;;;;;;;15.04;49.23;103696.00;4927257;29;20375;-59
2021/12/18 02:50:33;;;;;;;49.50;16.80;;;;;;;15.05;49.57;103692.31;4926958;29;20110;-60
2021/12/18 02:52:58;;;;;;;46.28;17.40;;;;;;;15.05;49.62;103692.31;4925660;29;20371;-59
2021/12/18 02:55:23;;;;;;;45.80;16.95;;;;;;;15.06;50.89;103690.50;4928479;29;20098;-59
2021/12/18 02:57:49;;;;;;;43.40;17.02;;;;;;;15.07;50.92;103678.75;4926977;29;20036;-59
2021/12/18 03:00:15;;;;;;;39.40;15.63;;;;;;;15.07;50.47;103693.09;4926722;29;20028;-60
2021/12/18 03:02:44;;;;;;;40.80;17.55;;;;;;;15.08;50.52;103685.88;4926845;29;20047;-59
2021/12/18 03:05:14;;;;;;;43.40;15.75;;;;;;;15.06;50.35;103680.59;4925982;29;20044;-59
2021/12/18 03:07:40;;;;;;;41.15;16.98;;;;;;;15.07;49.62;103684.16;4924740;29;20386;-59
2021/12/18 03:23:57;;;;;;;45.85;15.90;;;;;;;15.06;50.90;103683.28;4910064;29;20058;-59
2021/12/18 03:26:22;;;;;;;38.65;15.30;;;;;;;15.05;49.89;103686.03;4924420;29;20047;-59
2021/12/18 03:28:48;;;;;;;51.17;16.33;;;;;;;15.04;51.18;103687.03;4926391;29;20031;-59
2021/12/18 03:31:13;;;;;;;36.90;14.50;;;;;;;15.04;50.44;103684.31;4925086;29;20076;-59
2021/12/18 03:33:39;;;;;;;38.33;14.98;;;;;;;15.03;51.19;103686.16;4929596;29;20043;-58
2021/12/18 03:36:05;;;;;;;43.53;15.35;;;;;;;15.02;49.94;103680.81;4936477;29;20042;-59
2021/12/18 03:38:31;;;;;;;40.45;14.48;;;;;;;15.02;50.49;103680.81;4936628;29;20028;-59
2021/12/18 03:40:56;;;;;;;40.53;15.23;;;;;;;15.05;51.06;103680.66;4936434;29;20038;-59
2021/12/18 03:43:21;;;;;;;39.72;15.60;;;;;;;15.07;50.11;103678.75;4936725;29;20028;-59
2021/12/18 03:45:47;;;;;;;38.85;14.23;;;;;;;15.06;50.34;103677.00;4936592;29;20119;-59
2021/12/18 03:48:12;;;;;;;43.78;15.07;;;;;;;15.07;50.22;103684.16;4935267;28;20449;-59
2021/12/18 03:50:38;;;;;;;47.38;14.77;;;;;;;15.02;50.37;103676.31;4933873;29;20043;-59
2021/12/18 03:53:04;;;;;;;52.65;16.55;;;;;;;15.04;51.58;103678.94;4927403;28;20087;-59
2021/12/18 03:55:29;;;;;;;44.22;14.05;;;;;;;15.01;51.39;103681.81;4926879;29;20028;-59
2021/12/18 03:57:54;;;;;;;45.60;16.17;;;;;;;14.99;50.40;103681.03;4927146;29;20381;-59
2021/12/18 04:00:20;;;;;;;39.10;13.23;;;;;;;14.93;50.62;103686.78;4927611;29;20034;-59
2021/12/18 04:02:45;;;;;;;43.15;16.98;;;;;;;14.99;51.84;103681.03;4934908;29;20023;-59
2021/12/18 04:05:11;;;;;;;34.17;14.10;;;;;;;15.01;50.98;103684.50;4936172;29;20034;-59
2021/12/18 04:07:42;;;;;;;44.55;15.90;;;;;;;15.00;50.71;103675.53;4935296;29;20024;-59
2021/12/18 04:10:13;;;;;;;49.03;15.10;;;;;;;15.00;51.97;103680.94;4935181;29;20095;-59
2021/12/18 04:12:38;;;;;;;38.80;15.05;;;;;;;14.99;51.65;103671.06;4934922;29;20023;-59
2021/12/18 04:15:05;;;;;;;42.83;14.40;;;;;;;15.01;50.82;103673.69;4935749;29;20031;-59
2021/12/18 04:17:31;;;;;;;44.55;16.05;;;;;;;15.02;51.85;103675.44;4936196;29;20031;-59
2021/12/18 04:19:56;;;;;;;39.80;14.88;;;;;;;15.01;50.83;103679.09;4927785;29;20032;-59
2021/12/18 04:22:22;;;;;;;47.92;17.00;;;;;;;15.03;52.03;103677.19;4916918;29;20063;-59
2021/12/18 04:24:47;;;;;;;42.13;15.75;;;;;;;15.01;50.27;103679.97;4884029;29;1272786;-59
2021/12/18 04:27:13;;;;;;;39.42;15.05;;;;;;;15.02;51.16;103683.53;4936668;29;20034;-59
2021/12/18 04:29:38;;;;;;;43.78;14.45;;;;;;;15.01;52.00;103679.09;4936893;29;20043;-60
2021/12/18 04:32:04;;;;;;;38.53;14.20;;;;;;;15.01;50.82;103681.81;4936856;29;20038;-59
2021/12/18 04:34:29;;;;;;;42.03;14.18;;;;;;;14.97;51.25;103682.91;4936981;29;20130;-59
2021/12/18 04:36:54;;;;;;;39.20;14.40;;;;;;;14.95;51.51;103690.25;4936646;29;20080;-60
2021/12/18 04:39:20;;;;;;;42.05;13.90;;;;;;;14.95;51.86;103693.81;4936794;29;20044;-59
2021/12/18 04:41:51;;;;;;;38.40;14.60;;;;;;;14.93;51.62;103681.38;4936517;29;20036;-59
2021/12/18 04:44:17;;;;;;;42.85;14.73;;;;;;;14.94;51.43;103685.78;4937016;29;20032;-60
2021/12/18 04:46:42;;;;;;;47.80;14.50;;;;;;;14.95;50.72;103683.03;4919660;29;20028;-59
2021/12/18 04:49:08;;;;;;;39.47;14.80;;;;;;;14.96;51.93;103686.59;4919147;29;20032;-59
2021/12/18 04:51:33;;;;;;;38.40;15.63;;;;;;;14.97;52.23;103677.53;4936481;29;20035;-59
2021/12/18 04:53:59;;;;;;;43.45;15.32;;;;;;;15.00;51.90;103688.16;4939732;29;20023;-59
2021/12/18 04:56:24;;;;;;;36.85;14.93;;;;;;;14.99;51.15;103681.03;4940457;29;20033;-59
2021/12/18 04:58:50;;;;;;;41.90;14.88;;;;;;;15.02;51.97;103686.22;4940205;29;20034;-59
2021/12/18 05:01:16;;;;;;;40.55;13.75;;;;;;;15.00;51.57;103682.75;4939864;29;20063;-59
2021/12/18 05:03:43;;;;;;;36.92;14.63;;;;;;;15.04;52.06;103687.03;4907623;29;20043;-59
2021/12/18 05:06:08;;;;;;;34.38;14.40;;;;;;;15.03;51.51;103678.06;4940347;29;20042;-59
2021/12/18 05:08:33;;;;;;;37.85;13.25;;;;;;;15.03;51.35;103679.88;4922869;29;20027;-59
2021/12/18 05:10:59;;;;;;;36.13;14.27;;;;;;;15.01;51.62;103676.41;4940133;29;20106;-60
2021/12/18 05:13:24;;;;;;;41.88;14.93;;;;;;;15.03;51.96;103674.47;4939621;29;20035;-59
2021/12/18 05:15:49;;;;;;;38.22;13.32;;;;;;;15.04;52.03;103681.63;4939690;29;20031;-60
2021/12/18 05:18:15;;;;;;;48.33;16.00;;;;;;;15.04;50.72;103684.31;4939770;29;20024;-59
2021/12/18 05:20:40;;;;;;;37.42;12.50;;;;;;;15.03;51.38;103685.28;4939666;29;20115;-59
2021/12/18 05:23:05;;;;;;;39.92;15.25;;;;;;;15.03;51.92;103683.44;4939757;29;20385;-59
2021/12/18 05:25:31;;;;;;;36.55;12.63;;;;;;;15.05;52.12;103691.44;4939546;29;20047;-59
2021/12/18 05:27:56;;;;;;;38.10;13.10;;;;;;;15.06;51.09;103687.81;4939645;29;20500;-59
2021/12/18 05:30:22;;;;;;;41.17;14.27;;;;;;;15.06;52.01;103699.47;4939478;29;20169;-59
2021/12/18 05:32:47;;;;;;;44.08;15.85;;;;;;;15.06;52.02;103695.91;4939365;29;20021;-59
2021/12/18 05:35:15;;;;;;;52.75;14.82;;;;;;;15.04;51.52;103695.13;4939643;29;20023;-59
2021/12/18 05:37:52;;;;;;;45.53;14.00;;;;;;;15.03;51.21;103699.66;4939265;29;20473;-60
2021/12/18 05:40:23;;;;;;;40.58;14.35;;;;;;;15.01;52.14;103703.41;4939700;29;20102;-59
2021/12/18 05:42:50;;;;;;;42.63;14.73;;;;;;;15.00;51.79;103693.53;4922413;29;20083;-60
2021/12/18 05:45:15;;;;;;;40.97;13.27;;;;;;;15.01;50.59;103696.19;4939564;29;20066;-60
2021/12/18 05:47:43;;;;;;;37.88;13.73;;;;;;;15.01;51.85;103695.31;4939625;29;20024;-59
2021/12/18 05:50:10;;;;;;;37.53;12.55;;;;;;;15.01;51.16;103701.56;4939150;29;20042;-59
2021/12/18 05:52:35;;;;;;;37.97;13.85;;;;;;;15.05;52.28;103704.94;4922371;29;20024;-59
2021/12/18 05:55:01;;;;;;;36.60;13.25;;;;;;;15.05;51.80;103707.66;4939689;29;20492;-59
2021/12/18 05:57:26;;;;;;;34.88;12.90;;;;;;;15.04;51.61;103695.13;4939029;29;20036;-59
2021/12/18 05:59:52;;;;;;;34.13;11.60;;;;;;;15.06;51.09;103710.28;4939159;29;20050;-59
2021/12/18 06:02:17;;;;;;;39.63;12.05;;;;;;;15.06;50.83;103712.97;4922014;29;20036;-59
2021/12/18 06:04:42;;;;;;;29.88;11.02;;;;;;;15.07;50.88;103711.16;4939079;29;20028;-59
2021/12/18 06:07:16;;;;;;;33.72;10.93;;;;;;;15.06;51.39;103709.41;4938677;29;20107;-59
2021/12/18 06:09:41;;;;;;;31.30;10.70;;;;;;;15.05;51.24;103713.03;4938710;29;20031;-60
2021/12/18 06:12:07;;;;;;;34.28;11.82;;;;;;;15.04;51.64;103709.50;4938514;29;20093;-59
2021/12/18 06:14:33;;;;;;;40.78;12.63;;;;;;;15.03;51.01;103709.56;4938843;29;20031;-59
2021/12/18 06:16:58;;;;;;;38.22;11.82;;;;;;;15.00;50.89;103713.31;4938802;29;20512;-59
2021/12/18 06:19:24;;;;;;;46.55;14.15;;;;;;;14.97;51.61;103705.41;4938866;29;20488;-59
2021/12/18 06:21:50;;;;;;;42.50;13.20;;;;;;;14.96;52.20;103710.91;4938777;29;20027;-59
2021/12/18 06:24:15;;;;;;;39.35;13.05;;;;;;;14.93;51.11;103709.25;4937986;29;20070;-59
2021/12/18 06:26:42;;;;;;;39.85;13.45;;;;;;;14.88;51.04;103705.06;4938370;29;20056;-59
2021/12/18 06:29:08;;;;;;;45.20;14.57;;;;;;;14.84;51.49;103704.34;4938811;29;20152;-60
2021/12/18 06:31:34;;;;;;;41.50;14.95;;;;;;;14.85;51.66;103710.63;4921446;29;20059;-59
2021/12/18 06:33:59;;;;;;;49.55;13.90;;;;;;;14.84;52.18;103703.47;4905770;29;20469;-59
2021/12/18 06:36:24;;;;;;;46.40;13.43;;;;;;;14.83;51.59;103708.00;4921550;29;20127;-59
2021/12/18 06:38:50;;;;;;;42.38;13.93;;;;;;;14.88;51.71;103705.06;4938278;29;20054;-59
2021/12/18 06:41:15;;;;;;;42.08;12.75;;;;;;;14.88;52.06;103705.06;4921164;29;20087;-59
2021/12/18 06:43:40;;;;;;;41.35;13.23;;;;;;;14.89;52.78;103706.78;4938208;29;20024;-59
2021/12/18 06:46:06;;;;;;;45.25;13.95;;;;;;;14.88;52.24;103705.06;4938251;29;20035;-59
2021/12/18 06:48:32;;;;;;;48.47;13.65;;;;;;;14.91;52.75;103707.56;4938091;29;20034;-59
2021/12/18 06:50:58;;;;;;;43.20;13.38;;;;;;;14.91;51.24;103704.84;4938039;29;20059;-59
2021/12/18 06:53:23;;;;;;;41.55;13.18;;;;;;;14.91;51.46;103708.44;4938451;29;20035;-59
2021/12/18 06:55:48;;;;;;;49.38;15.73;;;;;;;14.92;52.13;103710.19;4905211;29;20023;-59
2021/12/18 06:58:14;;;;;;;45.83;13.05;;;;;;;14.91;52.64;103704.84;4937877;29;20083;-60
2021/12/18 07:00:39;;;;;;;40.53;12.68;;;;;;;14.93;51.50;103705.66;4937946;29;20024;-59
2021/12/18 07:03:04;;;;;;;36.90;13.35;;;;;;;14.91;52.22;103704.84;4921111;29;20024;-59
2021/12/18 07:05:30;;;;;;;44.60;12.88;;;;;;;14.91;52.62;103705.72;4937557;29;20455;-59
2021/12/18 07:07:56;;;;;;;44.42;12.18;;;;;;;14.90;51.47;103706.72;4937891;29;20106;-60
2021/12/18 07:10:22;;;;;;;42.53;12.05;;;;;;;14.89;51.73;103713.06;4937875;29;20027;-59
2021/12/18 07:12:47;;;;;;;41.08;13.13;;;;;;;14.88;52.00;103711.31;4920830;29;20035;-59
2021/12/18 07:15:13;;;;;;;37.28;12.88;;;;;;;14.86;51.16;103696.16;4937157;29;20039;-60
2021/12/18 07:17:39;;;;;;;46.85;12.55;;;;;;;14.84;51.33;103698.09;4937701;29;20131;-59
2021/12/18 07:20:06;;;;;;;38.67;13.15;;;;;;;14.81;51.23;103699.13;4937822;29;20059;-59
2021/12/18 07:22:31;;;;;;;42.30;12.27;;;;;;;14.77;51.71;103696.69;4920585;29;20086;-59
2021/12/18 07:24:57;;;;;;;44.65;13.82;;;;;;;14.72;51.32;103698.75;4917082;29;20080;-60
2021/12/18 07:27:22;;;;;;;40.83;13.23;;;;;;;14.71;52.63;103699.72;4918574;29;20032;-59
2021/12/18 07:29:48;;;;;;;43.42;14.15;;;;;;;14.69;52.44;103701.63;4901630;29;20107;-59
2021/12/18 07:32:13;;;;;;;42.63;13.93;;;;;;;14.68;52.05;103702.59;4918675;29;20503;-59
2021/12/18 07:34:39;;;;;;;44.10;14.45;;;;;;;14.67;52.96;103700.84;4918522;29;20438;-59
2021/12/18 07:37:04;;;;;;;51.13;14.13;;;;;;;14.68;52.06;103697.22;4917473;29;20501;-60
2021/12/18 07:39:29;;;;;;;42.15;14.25;;;;;;;14.69;51.53;103707.03;4918803;29;20112;-59
2021/12/18 07:41:55;;;;;;;41.10;14.05;;;;;;;14.69;51.30;103698.91;4918380;29;20616;-60
2021/12/18 07:44:20;;;;;;;48.47;13.95;;;;;;;14.65;51.80;103694.69;4917254;29;20056;-59
2021/12/18 07:46:46;;;;;;;52.17;16.58;;;;;;;14.67;51.46;103704.41;4918628;29;20035;-60
2021/12/18 07:49:12;;;;;;;48.50;14.63;;;;;;;14.65;51.70;103697.38;4917932;29;20028;-59
2021/12/18 07:51:37;;;;;;;49.72;14.13;;;;;;;14.66;52.67;103699.09;4917441;29;20050;-59
2021/12/18 07:54:04;;;;;;;49.03;13.82;;;;;;;14.67;52.61;103700.84;4918538;29;20478;-60
2021/12/18 07:56:30;;;;;;;49.97;14.52;;;;;;;14.68;51.92;103702.59;4918099;29;20159;-59
2021/12/18 07:58:55;;;;;;;41.72;15.10;;;;;;;14.70;52.00;103706.06;4918070;29;20111;-59
2021/12/18 08:01:20;;;;;;;45.00;14.15;;;;;;;14.69;52.56;103697.09;4917866;29;20035;-60
2021/12/18 08:03:46;;;;;;;47.30;15.57;;;;;;;14.69;51.76;103688.13;4918192;29;20055;-59
2021/12/18 08:06:11;;;;;;;34.53;12.40;;;;;;;14.71;51.45;103692.50;4917121;29;20039;-59
2021/12/18 08:08:37;;;;;;;43.25;14.82;;;;;;;14.72;52.41;103696.06;4916511;29;20024;-60
2021/12/18 08:11:03;;;;;;;47.58;14.82;;;;;;;14.73;52.60;103700.50;4917804;29;20028;-58
2021/12/18 08:13:28;;;;;;;47.85;14.48;;;;;;;14.74;52.14;103702.25;4918065;29;20032;-59
2021/12/18 08:15:53;;;;;;;54.60;15.15;;;;;;;14.74;51.84;103699.56;4918370;29;20099;-59
2021/12/18 08:18:19;;;;;;;45.35;13.90;;;;;;;14.70;51.66;103695.28;4918095;29;20066;-60
2021/12/18 08:20:44;;;;;;;46.45;15.00;;;;;;;14.69;52.87;103691.72;4916869;29;20024;-59
2021/12/18 08:23:10;;;;;;;43.28;13.50;;;;;;;14.74;52.28;103700.41;4916671;29;20027;-59
2021/12/18 08:25:36;;;;;;;49.67;16.88;;;;;;;14.75;52.41;103701.28;4931844;29;20056;-59
2021/12/18 08:28:03;;;;;;;48.63;17.30;;;;;;;14.76;51.40;103701.22;4938698;29;20075;-59
2021/12/18 08:30:30;;;;;;;45.00;15.07;;;;;;;14.77;51.81;103702.09;4923502;29;20035;-59
2021/12/18 08:32:56;;;;;;;46.58;14.60;;;;;;;14.78;51.43;103703.81;4940208;29;20489;-59
2021/12/18 08:35:22;;;;;;;44.72;13.50;;;;;;;14.78;52.16;103709.22;4940385;29;20485;-59
2021/12/18 08:37:47;;;;;;;40.33;14.45;;;;;;;14.80;51.24;103696.50;4940298;29;20031;-59
2021/12/18 08:40:13;;;;;;;44.10;14.48;;;;;;;14.82;51.31;103694.59;4940352;29;20024;-59
2021/12/18 08:42:39;;;;;;;41.50;15.50;;;;;;;14.86;51.75;103702.44;4940306;29;20028;-59
2021/12/18 08:45:05;;;;;;;50.55;15.23;;;;;;;14.87;51.34;103698.78;4940465;29;20388;-59
2021/12/18 08:47:31;;;;;;;53.20;15.75;;;;;;;14.92;51.16;103701.22;4940176;29;20131;-59
2021/12/18 08:49:56;;;;;;;51.90;15.10;;;;;;;14.93;52.09;103700.28;4940211;29;20030;-60
2021/12/18 08:52:22;;;;;;;51.05;15.10;;;;;;;14.95;52.58;103696.53;4923205;29;20055;-59
2021/12/18 08:54:48;;;;;;;48.75;15.27;;;;;;;14.94;52.40;103699.28;4940582;29;20556;-60
2021/12/18 08:57:13;;;;;;;59.67;15.82;;;;;;;14.96;51.59;103700.09;4923108;29;20036;-59
2021/12/18 08:59:39;;;;;;;46.78;13.13;;;;;;;15.01;52.45;103689.91;4940231;29;20066;-59
2021/12/18 09:02:05;;;;;;;43.65;14.35;;;;;;;15.01;52.54;103706.97;4940310;29;20023;-59
2021/12/18 09:04:30;;;;;;;36.42;13.48;;;;;;;15.00;52.41;103698.94;4923200;29;20504;-59
2021/12/18 09:06:56;;;;;;;38.45;13.52;;;;;;;15.04;51.86;103701.41;4939779;29;20115;-59
2021/12/18 09:09:21;;;;;;;42.75;12.32;;;;;;;15.05;51.05;103696.84;4939749;29;20040;-59
2021/12/18 09:11:46;;;;;;;45.33;13.73;;;;;;;15.08;51.29;103702.06;4939649;29;20556;-60
2021/12/18 09:14:12;;;;;;;40.13;13.65;;;;;;;15.08;52.31;103702.06;4939490;29;20028;-59
2021/12/18 09:16:37;;;;;;;45.25;15.05;;;;;;;15.10;52.83;103708.28;4939063;29;20028;-59
2021/12/18 09:19:03;;;;;;;44.90;14.55;;;;;;;15.12;52.58;103709.06;4939704;29;20472;-59
2021/12/18 09:21:28;;;;;;;40.33;13.75;;;;;;;15.12;51.27;103709.06;4939640;29;20032;-59
2021/12/18 09:23:54;;;;;;;46.85;13.63;;;;;;;15.14;51.98;103712.53;4939264;29;20391;-59
2021/12/18 09:26:19;;;;;;;42.25;15.32;;;;;;;15.12;51.55;103709.06;4939541;29;20031;-60
2021/12/18 09:28:44;;;;;;;42.50;14.02;;;;;;;15.16;51.27;103719.56;4922203;29;20034;-59
2021/12/18 09:31:10;;;;;;;41.28;12.65;;;;;;;15.19;51.37;103715.81;4939423;29;20027;-59
2021/12/18 09:33:35;;;;;;;42.35;14.32;;;;;;;15.22;51.20;103715.66;4939254;29;20083;-59
2021/12/18 09:36:01;;;;;;;45.10;13.80;;;;;;;15.21;52.47;103719.34;4939405;29;20063;-60
2021/12/18 09:38:26;;;;;;;47.58;13.93;;;;;;;15.23;52.49;103712.00;4938778;29;20079;-59
2021/12/18 09:40:51;;;;;;;45.58;14.60;;;;;;;15.21;52.16;103713.94;4939384;29;20058;-59
2021/12/18 09:43:17;;;;;;;40.97;13.35;;;;;;;15.22;52.43;103715.66;4939010;29;20389;-59
2021/12/18 09:45:46;;;;;;;36.67;12.27;;;;;;;15.26;51.85;103716.34;4939231;29;20121;-59
2021/12/18 09:48:11;;;;;;;46.28;15.40;;;;;;;15.25;50.96;103714.59;4939005;29;20481;-59
2021/12/18 09:50:38;;;;;;;41.70;13.52;;;;;;;15.25;50.98;103709.19;4939208;29;20039;-59
2021/12/18 09:53:05;;;;;;;38.30;13.57;;;;;;;15.28;51.38;103717.13;4922211;28;20024;-59
2021/12/18 09:55:30;;;;;;;50.17;14.93;;;;;;;15.30;51.19;103713.38;4939178;29;20396;-59
2021/12/18 09:57:55;;;;;;;50.60;15.55;;;;;;;15.33;51.77;103710.50;4938823;29;20074;-59
2021/12/18 10:00:23;;;;;;;46.95;14.02;;;;;;;15.34;51.58;103706.84;4938589;29;20114;-60
2021/12/18 10:02:49;;;;;;;49.72;14.98;;;;;;;15.34;51.40;103698.75;4922039;29;20485;-60
2021/12/18 10:05:27;;;;;;;44.83;14.98;;;;;;;15.35;51.19;103711.31;4939169;29;20027;-59
2021/12/18 10:08:12;;;;;;;46.95;15.10;;;;;;;15.34;51.20;103703.28;4921961;29;20030;-59
2021/12/18 10:10:39;;;;;;;50.10;14.40;;;;;;;15.29;51.23;103695.44;4922066;29;20024;-59
2021/12/18 10:13:09;;;;;;;48.13;15.73;;;;;;;15.33;51.18;103691.59;4921853;29;20437;-59
2021/12/18 10:15:35;;;;;;;52.92;15.07;;;;;;;15.34;52.63;103698.75;4921908;29;20086;-59
2021/12/18 10:18:09;;;;;;;53.67;16.10;;;;;;;15.36;51.59;103696.81;4938920;29;20037;-59
2021/12/18 10:20:36;;;;;;;45.33;15.52;;;;;;;15.38;51.80;103689.47;4921708;29;20106;-59
2021/12/18 10:23:04;;;;;;;44.95;14.82;;;;;;;15.39;51.83;103685.84;4939088;29;20024;-59
2021/12/18 10:25:47;;;;;;;54.83;15.82;;;;;;;15.43;52.40;103687.41;4938710;29;20552;-59
2021/12/18 10:28:20;;;;;;;43.88;13.93;;;;;;;15.43;51.23;103683.84;4938736;29;20167;-59
2021/12/18 10:30:57;;;;;;;39.17;12.77;;;;;;;15.45;51.74;103684.59;4922027;29;20456;-59
2021/12/18 10:33:31;;;;;;;44.67;15.48;;;;;;;15.46;51.13;103680.97;4938370;29;20090;-59
2021/12/18 10:35:58;;;;;;;42.10;13.73;;;;;;;15.47;51.67;103678.19;4921965;29;20058;-59
2021/12/18 10:38:52;;;;;;;46.00;15.00;;;;;;;15.48;50.95;103669.13;4938319;29;20119;-59
2021/12/18 10:41:28;;;;;;;42.42;15.48;;;;;;;15.49;51.77;103681.69;4921138;29;20548;-59
2021/12/18 10:44:09;;;;;;;44.22;14.35;;;;;;;15.48;51.21;103677.22;4938377;29;20030;-59
2021/12/18 10:46:36;;;;;;;40.83;14.57;;;;;;;15.48;51.60;103674.53;4938300;29;20055;-59
2021/12/18 10:49:10;;;;;;;46.40;14.40;;;;;;;15.47;52.73;103672.78;4937907;29;20043;-59
2021/12/18 10:51:37;;;;;;;44.13;14.50;;;;;;;15.49;51.01;103664.59;4937419;29;20027;-60
2021/12/18 10:54:16;;;;;;;44.00;14.30;;;;;;;15.49;51.34;103665.47;4905468;29;20118;-60
2021/12/18 10:56:43;;;;;;;40.58;14.35;;;;;;;15.49;51.94;103662.78;4937880;29;20437;-59
2021/12/18 10:59:38;;;;;;;47.00;13.80;;;;;;;15.50;52.73;103661.78;4938039;29;20031;-59
2021/12/18 11:02:06;;;;;;;45.13;13.93;;;;;;;15.51;52.56;103658.13;4908428;29;20040;-59
2021/12/18 11:04:34;;;;;;;40.45;13.68;;;;;;;15.55;52.67;103651.56;4937647;29;20038;-59
2021/12/18 11:07:28;;;;;;;42.20;12.32;;;;;;;15.59;51.19;103645.03;4937774;29;20019;-59
2021/12/18 11:10:18;;;;;;;45.92;14.80;;;;;;;15.57;51.32;103636.16;4937190;29;20027;-59
2021/12/18 11:15:29;;;;;;;39.30;13.85;;;;;;;15.64;51.36;103642.91;4937748;29;20047;-59
2021/12/18 11:17:54;;;;;;;41.88;12.88;;;;;;;15.65;51.88;103641.97;4937606;29;20453;-59
2021/12/18 11:20:20;;;;;;;40.88;12.65;;;;;;;15.67;51.41;103637.34;4904810;29;20035;-59
2021/12/18 11:22:49;;;;;;;43.83;13.75;;;;;;;15.68;51.33;103639.09;4937352;29;20462;-59
2021/12/18 11:25:14;;;;;;;34.90;12.90;;;;;;;15.67;51.60;103634.63;4916971;29;20501;-59
2021/12/18 11:27:40;;;;;;;39.17;12.68;;;;;;;15.66;51.68;103627.47;4918569;29;20036;-60
2021/12/18 11:30:14;;;;;;;33.15;13.30;;;;;;;15.69;52.15;103629.13;4917466;29;20028;-58
2021/12/18 11:32:42;;;;;;;34.13;11.73;;;;;;;15.69;50.96;103630.00;4917329;29;20500;-59
2021/12/18 11:35:11;;;;;;;30.83;10.48;;;;;;;15.69;52.49;103635.41;4918400;29;20082;-59
2021/12/18 11:37:41;;;;;;;30.70;12.20;;;;;;;15.66;51.67;103635.56;4918617;29;20024;-59
2021/12/18 11:40:08;;;;;;;31.08;10.05;;;;;;;15.68;52.19;103630.09;4917311;29;20024;-60
2021/12/18 11:42:34;;;;;;;43.70;12.80;;;;;;;15.68;51.74;103628.28;4917276;29;20397;-59
2021/12/18 11:45:01;;;;;;;38.95;12.00;;;;;;;15.66;52.10;103627.47;4918295;29;20036;-59
2021/12/18 11:47:33;;;;;;;31.75;11.95;;;;;;;15.69;52.44;103624.59;4917083;29;20028;-59
2021/12/18 11:50:03;;;;;;;36.85;11.18;;;;;;;15.70;52.37;103626.34;4918825;29;20477;-59
2021/12/18 11:52:31;;;;;;;40.63;11.10;;;;;;;15.69;52.27;103621.88;4918421;29;20036;-60